Stamford Pioneer — VRJD7 — position and weather

sailwx.info

Track history (hours):
 
Tides and Currents Weather Stations Pressure Air Temp Water Temp Dewpoint Dewpoint Depression Visibility Wind Speed Wind Dir Waves Ship Positions

Stamford Pioneer

Last reported at 2015-Feb-06 04:33 UTC. Time now 2015-Mar-01 00:32 UTC.
Position N 23°48' W 114°49'.
Warning: this ship's position is 22 days out of date.

Length 180 m; draft 9.9 m.

Type: Cargo ship. MMSI: 477462800.

Date/timePositionNaut miles runAvg speedWind from/ knotsBaromVisibWave heightAir tempDewpointWater temp
2015-Feb-06 04:33N 23°48' W 114°49'23112.7
2015-Feb-05 10:21N 25°57' W 118°20'7412.7
2015-Feb-05 04:31N 26°38' W 119°28'1312.6
2015-Feb-05 03:30N 26°46' W 119°40'8012.4
2015-Feb-04 21:05N 27°27' W 120°57'4612.7
2015-Feb-04 17:26N 27°50' W 121°42'4112.8
2015-Feb-04 14:16N 28°10' W 122°22'2512.5
2015-Feb-04 12:15N 28°23' W 122°47'1212.8
2015-Feb-04 11:20N 28°28' W 122°59'1612.4
2015-Feb-04 10:05N 28°36' W 123°14'712.6
2015-Feb-04 09:34N 28°39' W 123°21'1312.8
2015-Feb-04 08:33N 28°46' W 123°33'1512.6
2015-Feb-04 07:24N 28°53' W 123°48'1212.7
2015-Feb-04 06:27N 28°59' W 123°60'1213.0
2015-Feb-04 05:33N 29°05' W 124°11'1513.1
2015-Feb-04 04:23N 29°13' W 124°26'1012.5
2015-Feb-04 03:33N 29°17' W 124°37'1412.7
2015-Feb-04 02:29N 29°25' W 124°50'3213.2
2015-Feb-04 00:03N 29°40' W 125°22'13612.7
2015-Feb-03 13:21N 30°48' W 127°39'1012.4
2015-Feb-03 12:33N 30°53' W 127°49'6912.7
2015-Feb-03 07:09N 31°27' W 128°58'17212.7
2015-Feb-02 17:33N 32°44' W 132°00'5012.6
2015-Feb-02 13:33N 33°05' W 132°55'  
Track history (hours):
 
Tides and Currents Weather Stations Pressure Air Temp Water Temp Dewpoint Dewpoint Depression Visibility Wind Speed Wind Dir Waves Ship Positions

Stamford Pioneer

Last reported at 2015-Feb-06 04:33 UTC. Time now 2015-Mar-01 00:32 UTC.
Position N 23°48' W 114°49'.
Warning: this ship's position is 22 days out of date.

Length 180 m; draft 9.9 m.

Type: Cargo ship. MMSI: 477462800.

Date/timePositionNaut miles runAvg speedWind from/ knotsBaromVisibWave heightAir tempDewpointWater temp
2015-Feb-06 04:33N 23°48' W 114°49'23112.7
2015-Feb-05 10:21N 25°57' W 118°20'7412.7
2015-Feb-05 04:31N 26°38' W 119°28'1312.6
2015-Feb-05 03:30N 26°46' W 119°40'8012.4
2015-Feb-04 21:05N 27°27' W 120°57'4612.7
2015-Feb-04 17:26N 27°50' W 121°42'4112.8
2015-Feb-04 14:16N 28°10' W 122°22'2512.5
2015-Feb-04 12:15N 28°23' W 122°47'1212.8
2015-Feb-04 11:20N 28°28' W 122°59'1612.4
2015-Feb-04 10:05N 28°36' W 123°14'712.6
2015-Feb-04 09:34N 28°39' W 123°21'1312.8
2015-Feb-04 08:33N 28°46' W 123°33'1512.6
2015-Feb-04 07:24N 28°53' W 123°48'1212.7
2015-Feb-04 06:27N 28°59' W 123°60'1213.0
2015-Feb-04 05:33N 29°05' W 124°11'1513.1
2015-Feb-04 04:23N 29°13' W 124°26'1012.5
2015-Feb-04 03:33N 29°17' W 124°37'1412.7
2015-Feb-04 02:29N 29°25' W 124°50'3213.2
2015-Feb-04 00:03N 29°40' W 125°22'13612.7
2015-Feb-03 13:21N 30°48' W 127°39'1012.4
2015-Feb-03 12:33N 30°53' W 127°49'6912.7
2015-Feb-03 07:09N 31°27' W 128°58'17212.7
2015-Feb-02 17:33N 32°44' W 132°00'5012.6
2015-Feb-02 13:33N 33°05' W 132°55'  

Dump ship's entire track history